sensor_id;sensor_type;location;lat;lon;timestamp;pressure;altitude;pressure_sealevel;temperature;humidity
68077;BME280;54866;53.458;14.540;2023-04-01T00:02:19;98774.81;;;8.87;100.00
68077;BME280;54866;53.458;14.540;2023-04-01T00:04:49;98769.33;;;8.84;100.00
68077;BME280;54866;53.458;14.540;2023-04-01T00:07:19;98775.54;;;8.87;100.00
68077;BME280;54866;53.458;14.540;2023-04-01T00:09:49;98777.34;;;8.87;100.00
68077;BME280;54866;53.458;14.540;2023-04-01T00:12:21;98777.73;;;8.86;100.00
68077;BME280;54866;53.458;14.540;2023-04-01T00:14:53;98775.54;;;8.87;100.00
68077;BME280;54866;53.458;14.540;2023-04-01T00:17:23;98777.58;;;8.86;100.00
68077;BME280;54866;53.458;14.540;2023-04-01T00:19:53;98777.63;;;8.85;100.00
68077;BME280;54866;53.458;14.540;2023-04-01T00:22:24;98776.60;;;8.85;100.00
68077;BME280;54866;53.458;14.540;2023-04-01T00:24:54;98780.08;;;8.85;100.00
68077;BME280;54866;53.458;14.540;2023-04-01T00:27:24;98779.05;;;8.83;100.00
68077;BME280;54866;53.458;14.540;2023-04-01T00:29:54;98779.57;;;8.82;100.00
68077;BME280;54866;53.458;14.540;2023-04-01T00:32:24;98778.94;;;8.81;100.00
68077;BME280;54866;53.458;14.540;2023-04-01T00:34:54;98780.42;;;8.80;100.00
68077;BME280;54866;53.458;14.540;2023-04-01T00:37:24;98778.14;;;8.80;100.00
68077;BME280;54866;53.458;14.540;2023-04-01T00:39:54;98779.27;;;8.79;100.00
68077;BME280;54866;53.458;14.540;2023-04-01T00:42:25;98777.61;;;8.79;100.00
68077;BME280;54866;53.458;14.540;2023-04-01T00:44:56;98780.33;;;8.76;100.00
68077;BME280;54866;53.458;14.540;2023-04-01T00:47:27;98785.27;;;8.67;100.00
68077;BME280;54866;53.458;14.540;2023-04-01T00:49:58;98784.12;;;8.52;100.00
68077;BME280;54866;53.458;14.540;2023-04-01T00:52:29;98788.15;;;8.38;100.00
68077;BME280;54866;53.458;14.540;2023-04-01T00:55:01;98790.15;;;8.25;100.00
68077;BME280;54866;53.458;14.540;2023-04-01T00:57:38;98795.35;;;8.07;100.00
68077;BME280;54866;53.458;14.540;2023-04-01T01:00:12;98794.22;;;7.92;100.00
68077;BME280;54866;53.458;14.540;2023-04-01T01:02:45;98796.23;;;7.79;100.00
68077;BME280;54866;53.458;14.540;2023-04-01T01:05:17;98793.81;;;7.68;100.00
68077;BME280;54866;53.458;14.540;2023-04-01T01:07:53;98798.21;;;7.57;100.00
68077;BME280;54866;53.458;14.540;2023-04-01T01:10:29;98800.12;;;7.46;100.00
68077;BME280;54866;53.458;14.540;2023-04-01T01:13:06;98799.29;;;7.36;100.00
68077;BME280;54866;53.458;14.540;2023-04-01T01:15:44;98807.70;;;7.31;100.00
68077;BME280;54866;53.458;14.540;2023-04-01T01:18:21;98805.04;;;7.27;100.00
68077;BME280;54866;53.458;14.540;2023-04-01T01:21:23;98807.73;;;7.23;100.00
68077;BME280;54866;53.458;14.540;2023-04-01T01:24:23;98803.67;;;7.14;100.00
68077;BME280;54866;53.458;14.540;2023-04-01T01:27:06;98804.95;;;7.05;100.00
68077;BME280;54866;53.458;14.540;2023-04-01T01:29:56;98809.02;;;6.94;100.00
68077;BME280;54866;53.458;14.540;2023-04-01T01:32:44;98813.39;;;6.83;100.00
68077;BME280;54866;53.458;14.540;2023-04-01T01:35:26;98809.52;;;6.74;100.00
68077;BME280;54866;53.458;14.540;2023-04-01T01:38:01;98810.91;;;6.63;100.00
68077;BME280;54866;53.458;14.540;2023-04-01T01:40:33;98814.48;;;6.56;100.00
68077;BME280;54866;53.458;14.540;2023-04-01T01:43:06;98815.56;;;6.50;100.00
68077;BME280;54866;53.458;14.540;2023-04-01T01:45:40;98815.61;;;6.46;100.00
68077;BME280;54866;53.458;14.540;2023-04-01T01:48:13;98822.15;;;6.41;100.00
68077;BME280;54866;53.458;14.540;2023-04-01T01:50:44;98824.22;;;6.38;100.00
68077;BME280;54866;53.458;14.540;2023-04-01T01:53:16;98825.69;;;6.33;100.00
68077;BME280;54866;53.458;14.540;2023-04-01T01:55:47;98823.21;;;6.24;100.00
68077;BME280;54866;53.458;14.540;2023-04-01T01:58:22;98830.91;;;6.24;100.00
68077;BME280;54866;53.458;14.540;2023-04-01T02:00:55;98829.05;;;6.21;100.00
68077;BME280;54866;53.458;14.540;2023-04-01T02:03:28;98831.15;;;6.17;100.00
68077;BME280;54866;53.458;14.540;2023-04-01T02:05:59;98830.61;;;6.14;100.00
68077;BME280;54866;53.458;14.540;2023-04-01T02:08:32;98825.16;;;6.06;100.00
68077;BME280;54866;53.458;14.540;2023-04-01T02:11:07;98831.11;;;6.02;100.00
68077;BME280;54866;53.458;14.540;2023-04-01T02:13:43;98832.27;;;5.97;100.00
68077;BME280;54866;53.458;14.540;2023-04-01T02:16:17;98829.86;;;5.91;100.00
68077;BME280;54866;53.458;14.540;2023-04-01T02:18:50;98831.27;;;5.86;100.00
68077;BME280;54866;53.458;14.540;2023-04-01T02:21:27;98837.91;;;5.82;100.00
68077;BME280;54866;53.458;14.540;2023-04-01T02:23:58;98840.12;;;5.73;100.00
68077;BME280;54866;53.458;14.540;2023-04-01T02:26:30;98844.45;;;5.71;100.00
68077;BME280;54866;53.458;14.540;2023-04-01T02:29:01;98846.80;;;5.65;100.00
68077;BME280;54866;53.458;14.540;2023-04-01T02:31:32;98848.94;;;5.58;100.00
68077;BME280;54866;53.458;14.540;2023-04-01T02:34:04;98850.55;;;5.54;100.00
68077;BME280;54866;53.458;14.540;2023-04-01T02:36:34;98846.81;;;5.47;100.00
68077;BME280;54866;53.458;14.540;2023-04-01T02:39:05;98851.77;;;5.40;100.00
68077;BME280;54866;53.458;14.540;2023-04-01T02:41:40;98839.10;;;5.25;100.00
68077;BME280;54866;53.458;14.540;2023-04-01T02:44:10;98857.92;;;5.31;100.00
68077;BME280;54866;53.458;14.540;2023-04-01T02:46:41;98868.23;;;5.27;100.00
68077;BME280;54866;53.458;14.540;2023-04-01T02:49:10;98869.15;;;5.25;100.00
68077;BME280;54866;53.458;14.540;2023-04-01T02:51:41;98863.85;;;5.17;100.00
68077;BME280;54866;53.458;14.540;2023-04-01T02:54:14;98881.65;;;5.21;100.00
68077;BME280;54866;53.458;14.540;2023-04-01T02:56:43;98876.89;;;5.16;100.00
68077;BME280;54866;53.458;14.540;2023-04-01T02:59:13;98884.17;;;5.16;100.00
68077;BME280;54866;53.458;14.540;2023-04-01T03:01:43;98887.80;;;5.14;100.00
68077;BME280;54866;53.458;14.540;2023-04-01T03:04:14;98886.48;;;5.11;100.00
68077;BME280;54866;53.458;14.540;2023-04-01T03:06:43;98888.86;;;5.10;100.00
68077;BME280;54866;53.458;14.540;2023-04-01T03:09:15;98891.47;;;5.08;100.00
68077;BME280;54866;53.458;14.540;2023-04-01T03:11:45;98893.39;;;5.06;100.00
68077;BME280;54866;53.458;14.540;2023-04-01T03:14:15;98892.90;;;5.06;100.00
68077;BME280;54866;53.458;14.540;2023-04-01T03:16:45;98889.02;;;5.02;100.00
68077;BME280;54866;53.458;14.540;2023-04-01T03:19:15;98898.19;;;5.03;100.00
68077;BME280;54866;53.458;14.540;2023-04-01T03:21:45;98901.64;;;5.02;100.00
68077;BME280;54866;53.458;14.540;2023-04-01T03:24:17;98898.48;;;4.99;100.00
68077;BME280;54866;53.458;14.540;2023-04-01T03:26:47;98895.44;;;4.96;100.00
68077;BME280;54866;53.458;14.540;2023-04-01T03:29:17;98899.59;;;4.95;100.00
68077;BME280;54866;53.458;14.540;2023-04-01T03:31:47;98901.95;;;4.92;100.00
68077;BME280;54866;53.458;14.540;2023-04-01T03:34:17;98903.67;;;4.90;100.00
68077;BME280;54866;53.458;14.540;2023-04-01T03:36:47;98904.43;;;4.87;100.00
68077;BME280;54866;53.458;14.540;2023-04-01T03:39:18;98907.36;;;4.83;100.00
68077;BME280;54866;53.458;14.540;2023-04-01T03:41:48;98912.08;;;4.75;100.00
68077;BME280;54866;53.458;14.540;2023-04-01T03:44:18;98919.55;;;4.75;100.00
68077;BME280;54866;53.458;14.540;2023-04-01T03:46:48;98919.74;;;4.71;100.00
68077;BME280;54866;53.458;14.540;2023-04-01T03:49:18;98923.02;;;4.67;100.00
68077;BME280;54866;53.458;14.540;2023-04-01T03:51:48;98926.80;;;4.63;100.00
68077;BME280;54866;53.458;14.540;2023-04-01T03:54:18;98932.31;;;4.60;100.00
68077;BME280;54866;53.458;14.540;2023-04-01T03:56:48;98930.63;;;4.57;100.00
68077;BME280;54866;53.458;14.540;2023-04-01T03:59:18;98939.60;;;4.59;100.00
68077;BME280;54866;53.458;14.540;2023-04-01T04:01:49;98945.63;;;4.57;100.00
68077;BME280;54866;53.458;14.540;2023-04-01T04:04:18;98947.67;;;4.56;100.00
68077;BME280;54866;53.458;14.540;2023-04-01T04:06:48;98952.52;;;4.56;100.00
68077;BME280;54866;53.458;14.540;2023-04-01T04:09:19;98958.30;;;4.56;100.00
68077;BME280;54866;53.458;14.540;2023-04-01T04:11:50;98962.36;;;4.53;100.00
68077;BME280;54866;53.458;14.540;2023-04-01T04:14:20;98963.03;;;4.47;100.00
68077;BME280;54866;53.458;14.540;2023-04-01T04:16:50;98972.15;;;4.48;100.00
68077;BME280;54866;53.458;14.540;2023-04-01T04:19:20;98972.20;;;4.48;100.00
68077;BME280;54866;53.458;14.540;2023-04-01T04:21:50;98976.68;;;4.46;100.00
68077;BME280;54866;53.458;14.540;2023-04-01T04:24:23;98979.02;;;4.45;100.00
68077;BME280;54866;53.458;14.540;2023-04-01T04:26:53;98982.54;;;4.45;100.00
68077;BME280;54866;53.458;14.540;2023-04-01T04:29:25;98981.85;;;4.43;100.00
68077;BME280;54866;53.458;14.540;2023-04-01T04:31:55;98987.00;;;4.41;100.00
68077;BME280;54866;53.458;14.540;2023-04-01T04:34:27;98986.91;;;4.40;100.00
68077;BME280;54866;53.458;14.540;2023-04-01T04:36:59;98989.23;;;4.40;100.00
68077;BME280;54866;53.458;14.540;2023-04-01T04:39:30;98991.92;;;4.39;100.00
68077;BME280;54866;53.458;14.540;2023-04-01T04:42:00;98993.32;;;4.37;100.00
68077;BME280;54866;53.458;14.540;2023-04-01T04:44:30;98991.89;;;4.35;100.00
68077;BME280;54866;53.458;14.540;2023-04-01T04:47:00;98991.17;;;4.31;100.00
68077;BME280;54866;53.458;14.540;2023-04-01T04:49:33;99000.30;;;4.30;100.00
68077;BME280;54866;53.458;14.540;2023-04-01T04:52:03;98996.14;;;4.23;100.00
68077;BME280;54866;53.458;14.540;2023-04-01T04:54:33;99000.42;;;4.22;100.00
68077;BME280;54866;53.458;14.540;2023-04-01T04:57:02;99007.64;;;4.23;100.00
68077;BME280;54866;53.458;14.540;2023-04-01T04:59:33;99014.71;;;4.22;100.00
68077;BME280;54866;53.458;14.540;2023-04-01T05:02:02;99014.38;;;4.20;100.00
68077;BME280;54866;53.458;14.540;2023-04-01T05:04:35;99016.34;;;4.19;100.00
68077;BME280;54866;53.458;14.540;2023-04-01T05:07:05;99019.48;;;4.19;100.00
68077;BME280;54866;53.458;14.540;2023-04-01T05:09:35;99017.06;;;4.19;100.00
68077;BME280;54866;53.458;14.540;2023-04-01T05:12:05;99026.79;;;4.19;100.00
68077;BME280;54866;53.458;14.540;2023-04-01T05:14:36;99028.05;;;4.19;100.00
68077;BME280;54866;53.458;14.540;2023-04-01T05:17:09;99030.69;;;4.21;100.00
68077;BME280;54866;53.458;14.540;2023-04-01T05:19:39;99035.75;;;4.20;100.00
68077;BME280;54866;53.458;14.540;2023-04-01T05:22:09;99039.51;;;4.19;100.00
68077;BME280;54866;53.458;14.540;2023-04-01T05:24:39;99043.12;;;4.20;100.00
68077;BME280;54866;53.458;14.540;2023-04-01T05:27:09;99043.38;;;4.21;100.00
68077;BME280;54866;53.458;14.540;2023-04-01T05:29:42;99043.39;;;4.23;100.00
68077;BME280;54866;53.458;14.540;2023-04-01T05:32:12;99044.09;;;4.23;100.00
68077;BME280;54866;53.458;14.540;2023-04-01T05:34:41;99046.61;;;4.24;100.00
68077;BME280;54866;53.458;14.540;2023-04-01T05:37:11;99038.54;;;4.20;100.00
68077;BME280;54866;53.458;14.540;2023-04-01T05:39:42;99049.52;;;4.25;100.00
68077;BME280;54866;53.458;14.540;2023-04-01T05:42:12;99052.02;;;4.26;100.00
68077;BME280;54866;53.458;14.540;2023-04-01T05:44:44;99051.90;;;4.28;100.00
68077;BME280;54866;53.458;14.540;2023-04-01T05:47:16;99053.41;;;4.29;100.00
68077;BME280;54866;53.458;14.540;2023-04-01T05:49:46;99059.67;;;4.31;100.00
68077;BME280;54866;53.458;14.540;2023-04-01T05:52:16;99058.59;;;4.32;100.00
68077;BME280;54866;53.458;14.540;2023-04-01T05:54:46;99062.39;;;4.34;100.00
68077;BME280;54866;53.458;14.540;2023-04-01T05:57:16;99062.67;;;4.37;100.00
68077;BME280;54866;53.458;14.540;2023-04-01T05:59:52;99062.09;;;4.40;100.00
68077;BME280;54866;53.458;14.540;2023-04-01T06:02:22;99063.20;;;4.44;100.00
68077;BME280;54866;53.458;14.540;2023-04-01T06:04:59;99065.70;;;4.47;100.00
68077;BME280;54866;53.458;14.540;2023-04-01T06:07:31;99069.30;;;4.50;100.00
68077;BME280;54866;53.458;14.540;2023-04-01T06:10:01;99071.92;;;4.52;100.00
68077;BME280;54866;53.458;14.540;2023-04-01T06:12:49;99076.94;;;4.55;100.00
68077;BME280;54866;53.458;14.540;2023-04-01T06:15:27;99080.02;;;4.58;100.00
68077;BME280;54866;53.458;14.540;2023-04-01T06:18:31;99075.19;;;4.60;100.00
68077;BME280;54866;53.458;14.540;2023-04-01T06:21:20;99079.89;;;4.60;100.00
68077;BME280;54866;53.458;14.540;2023-04-01T06:24:01;99086.67;;;4.60;100.00
68077;BME280;54866;53.458;14.540;2023-04-01T06:26:39;99085.58;;;4.61;100.00
68077;BME280;54866;53.458;14.540;2023-04-01T06:32:30;99089.94;;;4.67;100.00
68077;BME280;54866;53.458;14.540;2023-04-01T06:35:22;99061.77;;;4.53;100.00
68077;BME280;54866;53.458;14.540;2023-04-01T06:38:27;99088.98;;;4.71;100.00
68077;BME280;54866;53.458;14.540;2023-04-01T06:41:54;99078.77;;;4.61;100.00
68077;BME280;54866;53.458;14.540;2023-04-01T06:44:37;99099.45;;;4.68;100.00
68077;BME280;54866;53.458;14.540;2023-04-01T06:47:23;99108.25;;;4.74;100.00
68077;BME280;54866;53.458;14.540;2023-04-01T06:50:05;99101.61;;;4.76;100.00
68077;BME280;54866;53.458;14.540;2023-04-01T06:52:45;99111.41;;;4.76;100.00
68077;BME280;54866;53.458;14.540;2023-04-01T06:55:26;99114.62;;;4.79;100.00
68077;BME280;54866;53.458;14.540;2023-04-01T06:57:59;99122.77;;;4.82;100.00
68077;BME280;54866;53.458;14.540;2023-04-01T07:00:36;99116.91;;;4.85;100.00
68077;BME280;54866;53.458;14.540;2023-04-01T07:03:19;99123.34;;;4.91;100.00
68077;BME280;54866;53.458;14.540;2023-04-01T07:05:51;99121.23;;;4.93;100.00
68077;BME280;54866;53.458;14.540;2023-04-01T07:08:25;99107.55;;;4.89;100.00
68077;BME280;54866;53.458;14.540;2023-04-01T07:10:58;99130.03;;;5.02;100.00
68077;BME280;54866;53.458;14.540;2023-04-01T07:13:32;99129.47;;;5.03;100.00
68077;BME280;54866;53.458;14.540;2023-04-01T07:16:15;99133.95;;;5.04;100.00
68077;BME280;54866;53.458;14.540;2023-04-01T07:18:50;99122.80;;;4.97;100.00
68077;BME280;54866;53.458;14.540;2023-04-01T07:21:29;99143.64;;;5.09;100.00
68077;BME280;54866;53.458;14.540;2023-04-01T07:24:09;99143.23;;;5.10;100.00
68077;BME280;54866;53.458;14.540;2023-04-01T07:26:42;99148.71;;;5.09;100.00
68077;BME280;54866;53.458;14.540;2023-04-01T07:29:14;99153.43;;;5.07;100.00
68077;BME280;54866;53.458;14.540;2023-04-01T07:31:57;99144.23;;;4.97;100.00
68077;BME280;54866;53.458;14.540;2023-04-01T07:34:38;99163.77;;;5.04;100.00
68077;BME280;54866;53.458;14.540;2023-04-01T07:37:12;99167.36;;;5.03;100.00
68077;BME280;54866;53.458;14.540;2023-04-01T07:39:54;99172.64;;;5.02;100.00
68077;BME280;54866;53.458;14.540;2023-04-01T07:42:35;99172.50;;;4.97;100.00
68077;BME280;54866;53.458;14.540;2023-04-01T07:45:17;99174.06;;;4.93;100.00
68077;BME280;54866;53.458;14.540;2023-04-01T07:48:13;99175.89;;;4.94;100.00
68077;BME280;54866;53.458;14.540;2023-04-01T07:50:49;99184.73;;;4.99;100.00
68077;BME280;54866;53.458;14.540;2023-04-01T07:53:29;99187.98;;;5.00;100.00
68077;BME280;54866;53.458;14.540;2023-04-01T07:56:06;99192.20;;;5.00;100.00
68077;BME280;54866;53.458;14.540;2023-04-01T07:58:49;99191.96;;;5.01;100.00
68077;BME280;54866;53.458;14.540;2023-04-01T08:01:27;99199.20;;;5.04;100.00
68077;BME280;54866;53.458;14.540;2023-04-01T08:04:08;99200.89;;;5.07;100.00
68077;BME280;54866;53.458;14.540;2023-04-01T08:06:45;99203.96;;;5.10;100.00
68077;BME280;54866;53.458;14.540;2023-04-01T08:09:23;99201.39;;;5.09;100.00
68077;BME280;54866;53.458;14.540;2023-04-01T08:12:17;99210.11;;;5.14;100.00
68077;BME280;54866;53.458;14.540;2023-04-01T08:15:07;99213.05;;;5.21;100.00
68077;BME280;54866;53.458;14.540;2023-04-01T08:17:46;99215.66;;;5.28;100.00
68077;BME280;54866;53.458;14.540;2023-04-01T08:20:29;99217.38;;;5.35;100.00
68077;BME280;54866;53.458;14.540;2023-04-01T08:23:10;99221.19;;;5.39;100.00
68077;BME280;54866;53.458;14.540;2023-04-01T08:25:48;99221.73;;;5.43;100.00
68077;BME280;54866;53.458;14.540;2023-04-01T08:28:24;99221.75;;;5.47;100.00
68077;BME280;54866;53.458;14.540;2023-04-01T08:30:58;99227.55;;;5.53;100.00
68077;BME280;54866;53.458;14.540;2023-04-01T08:33:31;99226.40;;;5.59;100.00
68077;BME280;54866;53.458;14.540;2023-04-01T08:36:05;99227.67;;;5.61;100.00
68077;BME280;54866;53.458;14.540;2023-04-01T08:38:41;99230.77;;;5.67;100.00
68077;BME280;54866;53.458;14.540;2023-04-01T08:44:32;99238.05;;;5.83;100.00
68077;BME280;54866;53.458;14.540;2023-04-01T08:47:28;99245.06;;;5.96;100.00
68077;BME280;54866;53.458;14.540;2023-04-01T08:53:17;99248.68;;;6.10;100.00
68077;BME280;54866;53.458;14.540;2023-04-01T08:56:03;99255.34;;;6.07;100.00
68077;BME280;54866;53.458;14.540;2023-04-01T08:58:58;99257.64;;;6.07;100.00
68077;BME280;54866;53.458;14.540;2023-04-01T09:01:54;99252.99;;;6.01;100.00
68077;BME280;54866;53.458;14.540;2023-04-01T09:04:43;99259.27;;;6.04;100.00
68077;BME280;54866;53.458;14.540;2023-04-01T09:07:34;99263.73;;;6.11;100.00
68077;BME280;54866;53.458;14.540;2023-04-01T09:10:39;99269.91;;;6.27;100.00
68077;BME280;54866;53.458;14.540;2023-04-01T09:13:32;99277.67;;;6.37;100.00
68077;BME280;54866;53.458;14.540;2023-04-01T09:16:15;99276.30;;;6.50;100.00
68077;BME280;54866;53.458;14.540;2023-04-01T09:22:13;99282.42;;;6.44;99.97
68077;BME280;54866;53.458;14.540;2023-04-01T09:25:17;99290.23;;;6.38;99.95
68077;BME280;54866;53.458;14.540;2023-04-01T09:27:57;99294.33;;;6.26;100.00
68077;BME280;54866;53.458;14.540;2023-04-01T09:30:40;99297.93;;;6.17;100.00
68077;BME280;54866;53.458;14.540;2023-04-01T09:36:36;99304.85;;;6.11;100.00
68077;BME280;54866;53.458;14.540;2023-04-01T09:39:31;99305.20;;;6.13;100.00
68077;BME280;54866;53.458;14.540;2023-04-01T09:42:32;99312.28;;;6.20;100.00
68077;BME280;54866;53.458;14.540;2023-04-01T09:45:13;99315.09;;;6.27;100.00
68077;BME280;54866;53.458;14.540;2023-04-01T09:48:00;99315.95;;;6.27;100.00
68077;BME280;54866;53.458;14.540;2023-04-01T09:50:38;99318.64;;;6.26;100.00
68077;BME280;54866;53.458;14.540;2023-04-01T09:53:19;99322.97;;;6.29;99.21
68077;BME280;54866;53.458;14.540;2023-04-01T09:59:39;99331.41;;;6.35;98.11
68077;BME280;54866;53.458;14.540;2023-04-01T10:02:47;99332.94;;;6.44;98.31
68077;BME280;54866;53.458;14.540;2023-04-01T10:05:48;99335.60;;;6.50;97.27
68077;BME280;54866;53.458;14.540;2023-04-01T10:08:41;99334.94;;;6.60;97.08
68077;BME280;54866;53.458;14.540;2023-04-01T10:14:43;99340.65;;;6.58;95.50
68077;BME280;54866;53.458;14.540;2023-04-01T10:23:41;99349.23;;;6.26;96.29
68077;BME280;54866;53.458;14.540;2023-04-01T10:26:38;99353.26;;;6.16;96.76
68077;BME280;54866;53.458;14.540;2023-04-01T10:29:36;99354.55;;;6.09;96.97
68077;BME280;54866;53.458;14.540;2023-04-01T10:32:31;99349.65;;;6.00;97.28
68077;BME280;54866;53.458;14.540;2023-04-01T10:35:38;99353.73;;;6.03;97.41
68077;BME280;54866;53.458;14.540;2023-04-01T10:38:51;99353.30;;;6.04;96.92
68077;BME280;54866;53.458;14.540;2023-04-01T10:48:22;99363.70;;;5.93;96.80
68077;BME280;54866;53.458;14.540;2023-04-01T10:51:11;99371.72;;;5.95;97.57
68077;BME280;54866;53.458;14.540;2023-04-01T10:53:50;99371.00;;;5.95;97.50
68077;BME280;54866;53.458;14.540;2023-04-01T10:56:41;99373.77;;;5.89;97.21
68077;BME280;54866;53.458;14.540;2023-04-01T10:59:53;99374.52;;;5.80;97.34
68077;BME280;54866;53.458;14.540;2023-04-01T11:03:00;99378.02;;;5.77;97.95
68077;BME280;54866;53.458;14.540;2023-04-01T11:05:59;99380.73;;;5.81;97.93
68077;BME280;54866;53.458;14.540;2023-04-01T11:08:57;99388.89;;;5.86;98.12
68077;BME280;54866;53.458;14.540;2023-04-01T11:11:54;99393.23;;;5.91;97.90
68077;BME280;54866;53.458;14.540;2023-04-01T11:17:57;99395.96;;;5.78;97.63
68077;BME280;54866;53.458;14.540;2023-04-01T11:20:46;99404.82;;;5.69;97.68
68077;BME280;54866;53.458;14.540;2023-04-01T11:23:54;99406.21;;;5.65;98.39
68077;BME280;54866;53.458;14.540;2023-04-01T11:26:41;99408.08;;;5.55;97.71
68077;BME280;54866;53.458;14.540;2023-04-01T11:29:30;99413.80;;;5.53;97.46
68077;BME280;54866;53.458;14.540;2023-04-01T11:32:13;99415.77;;;5.59;97.40
68077;BME280;54866;53.458;14.540;2023-04-01T11:35:25;99414.64;;;5.71;97.32
68077;BME280;54866;53.458;14.540;2023-04-01T11:38:09;99413.83;;;5.91;96.69
68077;BME280;54866;53.458;14.540;2023-04-01T11:40:47;99420.70;;;6.01;96.05
68077;BME280;54866;53.458;14.540;2023-04-01T11:43:27;99425.53;;;6.02;95.35
68077;BME280;54866;53.458;14.540;2023-04-01T11:46:03;99430.47;;;6.06;95.97
68077;BME280;54866;53.458;14.540;2023-04-01T11:48:54;99433.45;;;6.19;96.15
68077;BME280;54866;53.458;14.540;2023-04-01T11:51:56;99433.80;;;6.45;95.70
68077;BME280;54866;53.458;14.540;2023-04-01T11:54:42;99439.42;;;6.64;95.34
68077;BME280;54866;53.458;14.540;2023-04-01T11:57:46;99439.24;;;6.60;93.26
68077;BME280;54866;53.458;14.540;2023-04-01T12:00:52;99444.20;;;6.52;92.67
68077;BME280;54866;53.458;14.540;2023-04-01T12:03:42;99449.41;;;6.51;92.95
68077;BME280;54866;53.458;14.540;2023-04-01T12:06:21;99452.70;;;6.47;92.82
68077;BME280;54866;53.458;14.540;2023-04-01T12:09:01;99455.27;;;6.39;93.22
68077;BME280;54866;53.458;14.540;2023-04-01T12:11:38;99458.84;;;6.31;92.99
68077;BME280;54866;53.458;14.540;2023-04-01T12:14:18;99459.44;;;6.22;93.09
68077;BME280;54866;53.458;14.540;2023-04-01T12:16:57;99461.13;;;6.10;93.09
68077;BME280;54866;53.458;14.540;2023-04-01T12:19:39;99470.89;;;6.01;93.41
68077;BME280;54866;53.458;14.540;2023-04-01T12:22:37;99475.14;;;5.94;93.64
68077;BME280;54866;53.458;14.540;2023-04-01T12:25:22;99474.36;;;5.88;93.44
68077;BME280;54866;53.458;14.540;2023-04-01T12:28:05;99476.39;;;5.84;93.38
68077;BME280;54866;53.458;14.540;2023-04-01T12:30:48;99479.92;;;5.79;93.57
68077;BME280;54866;53.458;14.540;2023-04-01T12:33:34;99483.79;;;5.77;93.89
68077;BME280;54866;53.458;14.540;2023-04-01T12:36:16;99487.78;;;5.72;93.69
68077;BME280;54866;53.458;14.540;2023-04-01T12:39:03;99491.15;;;5.67;93.46
68077;BME280;54866;53.458;14.540;2023-04-01T12:41:45;99496.61;;;5.62;93.70
68077;BME280;54866;53.458;14.540;2023-04-01T12:44:27;99497.71;;;5.61;93.41
68077;BME280;54866;53.458;14.540;2023-04-01T12:47:24;99500.30;;;5.64;93.47
68077;BME280;54866;53.458;14.540;2023-04-01T12:50:18;99506.54;;;5.63;93.49
68077;BME280;54866;53.458;14.540;2023-04-01T12:53:17;99508.62;;;5.65;93.66
68077;BME280;54866;53.458;14.540;2023-04-01T12:56:03;99511.48;;;5.69;93.13
68077;BME280;54866;53.458;14.540;2023-04-01T12:58:59;99516.70;;;5.64;92.53
68077;BME280;54866;53.458;14.540;2023-04-01T13:02:13;99520.27;;;5.59;93.16
68077;BME280;54866;53.458;14.540;2023-04-01T13:05:01;99525.73;;;5.61;93.40
68077;BME280;54866;53.458;14.540;2023-04-01T13:07:50;99525.08;;;5.65;93.68
68077;BME280;54866;53.458;14.540;2023-04-01T13:10:30;99526.18;;;5.68;93.49
68077;BME280;54866;53.458;14.540;2023-04-01T13:13:27;99525.90;;;5.63;92.63
68077;BME280;54866;53.458;14.540;2023-04-01T13:16:04;99531.16;;;5.54;93.26
68077;BME280;54866;53.458;14.540;2023-04-01T13:18:43;99533.26;;;5.51;93.50
68077;BME280;54866;53.458;14.540;2023-04-01T13:21:24;99532.47;;;5.52;93.51
68077;BME280;54866;53.458;14.540;2023-04-01T13:24:01;99535.56;;;5.53;92.51
68077;BME280;54866;53.458;14.540;2023-04-01T13:26:36;99537.02;;;5.57;92.17
68077;BME280;54866;53.458;14.540;2023-04-01T13:29:13;99544.27;;;5.58;91.59
68077;BME280;54866;53.458;14.540;2023-04-01T13:32:00;99549.35;;;5.56;91.40
68077;BME280;54866;53.458;14.540;2023-04-01T13:34:43;99552.14;;;5.51;91.07
68077;BME280;54866;53.458;14.540;2023-04-01T13:37:27;99560.60;;;5.43;91.08
68077;BME280;54866;53.458;14.540;2023-04-01T13:43:04;99568.01;;;5.33;90.42
68077;BME280;54866;53.458;14.540;2023-04-01T13:45:43;99573.34;;;5.34;90.73
68077;BME280;54866;53.458;14.540;2023-04-01T13:48:29;99578.48;;;5.33;90.61
68077;BME280;54866;53.458;14.540;2023-04-01T13:54:25;99588.02;;;5.29;91.63
68077;BME280;54866;53.458;14.540;2023-04-01T13:57:14;99592.44;;;5.33;91.73
68077;BME280;54866;53.458;14.540;2023-04-01T14:00:04;99591.61;;;5.35;91.65
68077;BME280;54866;53.458;14.540;2023-04-01T14:03:03;99596.72;;;5.30;91.25
68077;BME280;54866;53.458;14.540;2023-04-01T14:05:48;99597.20;;;5.23;91.65
68077;BME280;54866;53.458;14.540;2023-04-01T14:08:40;99600.82;;;5.17;92.05
68077;BME280;54866;53.458;14.540;2023-04-01T14:11:16;99604.85;;;5.09;92.17
68077;BME280;54866;53.458;14.540;2023-04-01T14:13:55;99603.88;;;5.01;92.43
68077;BME280;54866;53.458;14.540;2023-04-01T14:19:22;99606.17;;;4.86;92.10
68077;BME280;54866;53.458;14.540;2023-04-01T14:22:02;99609.02;;;4.83;91.59
68077;BME280;54866;53.458;14.540;2023-04-01T14:24:49;99612.88;;;4.83;91.26
68077;BME280;54866;53.458;14.540;2023-04-01T14:27:31;99619.66;;;4.83;91.22
68077;BME280;54866;53.458;14.540;2023-04-01T14:30:24;99626.20;;;4.79;91.29
68077;BME280;54866;53.458;14.540;2023-04-01T14:33:03;99634.11;;;4.74;91.13
68077;BME280;54866;53.458;14.540;2023-04-01T14:35:39;99631.95;;;4.70;91.28
68077;BME280;54866;53.458;14.540;2023-04-01T14:38:25;99638.93;;;4.67;91.32
68077;BME280;54866;53.458;14.540;2023-04-01T14:41:10;99639.96;;;4.63;91.57
68077;BME280;54866;53.458;14.540;2023-04-01T14:43:58;99643.69;;;4.60;91.48
68077;BME280;54866;53.458;14.540;2023-04-01T14:47:04;99646.73;;;4.56;91.66